F/V Argentario — FGPE — position and weather

sailwx.info

Track history (hours):
 
Tides and Currents Weather Stations Pressure Air Temp Water Temp Dewpoint Dewpoint Depression Visibility Wind Speed Wind Dir Waves Ship Positions

F/V Argentario

Last reported at 2016-May-06 00:21 UTC. Time now 2016-May-06 14:53 UTC.
Position N 46°44' W 002°21'.

Length 22 m; draft 3.4 m.

Type: Fishing. MMSI: 228975000.

Date/timePositionNaut miles runAvg speedWind from/ knotsBaromVisibWave heightAir tempDewpointWater temp
2016-May-06 00:21N 46°44' W 002°21'1 1.2
2016-May-05 23:33N 46°44' W 002°20'0 0.1
2016-May-05 22:33N 46°44' W 002°20'4 4.1
2016-May-05 21:32N 46°42' W 002°15'4 4.4
2016-May-05 20:33N 46°39' W 002°10'4 4.3
2016-May-05 19:33N 46°36' W 002°05'3 2.9
2016-May-05 18:32N 46°35' W 002°02'4 4.5
2016-May-05 17:33N 46°32' W 001°57'5 4.7
2016-May-05 16:33N 46°29' W 001°51'3 2.7
2016-May-05 15:33N 46°30' W 001°47'4 4.5
2016-May-05 14:33N 46°26' W 001°49'10 9.5
2016-May-05 13:33N 46°17' W 001°55'53 8.8
2016-May-05 07:33N 45°29' W 002°26'1 1.5
2016-May-05 06:33N 45°29' W 002°28'2 2.1
2016-May-05 05:33N 45°28' W 002°26'1 1.1
2016-May-05 04:21N 45°29' W 002°27'1 1.3
2016-May-05 03:34N 45°29' W 002°29'0 0.0
2016-May-04 00:32N 45°29' W 002°29'  
2016-Apr-30 21:30N 46°22' W 001°54'5 5.8
2016-Apr-30 20:33N 46°27' W 001°50'4 3.6
2016-Apr-30 19:33N 46°30' W 001°47'0 0.2
2016-Apr-30 18:33N 46°30' W 001°48'8 8.4
2016-Apr-30 17:33N 46°22' W 001°53'  
Track history (hours):
 
Tides and Currents Weather Stations Pressure Air Temp Water Temp Dewpoint Dewpoint Depression Visibility Wind Speed Wind Dir Waves Ship Positions

F/V Argentario

Last reported at 2016-May-06 00:21 UTC. Time now 2016-May-06 14:53 UTC.
Position N 46°44' W 002°21'.

Length 22 m; draft 3.4 m.

Type: Fishing. MMSI: 228975000.

Date/timePositionNaut miles runAvg speedWind from/ knotsBaromVisibWave heightAir tempDewpointWater temp
2016-May-06 00:21N 46°44' W 002°21'1 1.2
2016-May-05 23:33N 46°44' W 002°20'0 0.1
2016-May-05 22:33N 46°44' W 002°20'4 4.1
2016-May-05 21:32N 46°42' W 002°15'4 4.4
2016-May-05 20:33N 46°39' W 002°10'4 4.3
2016-May-05 19:33N 46°36' W 002°05'3 2.9
2016-May-05 18:32N 46°35' W 002°02'4 4.5
2016-May-05 17:33N 46°32' W 001°57'5 4.7
2016-May-05 16:33N 46°29' W 001°51'3 2.7
2016-May-05 15:33N 46°30' W 001°47'4 4.5
2016-May-05 14:33N 46°26' W 001°49'10 9.5
2016-May-05 13:33N 46°17' W 001°55'53 8.8
2016-May-05 07:33N 45°29' W 002°26'1 1.5
2016-May-05 06:33N 45°29' W 002°28'2 2.1
2016-May-05 05:33N 45°28' W 002°26'1 1.1
2016-May-05 04:21N 45°29' W 002°27'1 1.3
2016-May-05 03:34N 45°29' W 002°29'0 0.0
2016-May-04 00:32N 45°29' W 002°29'  
2016-Apr-30 21:30N 46°22' W 001°54'5 5.8
2016-Apr-30 20:33N 46°27' W 001°50'4 3.6
2016-Apr-30 19:33N 46°30' W 001°47'0 0.2
2016-Apr-30 18:33N 46°30' W 001°48'8 8.4
2016-Apr-30 17:33N 46°22' W 001°53'  

Dump ship's entire track history